Time;durP1;ratioP1;P1;durP2;ratioP2;P2;SDS_P1;SDS_P2;PMS_P1;PMS_P2;Temp;Humidity;BMP_temperature;BMP_pressure;BME280_temperature;BME280_humidity;BME280_pressure;Samples;Min_cycle;Max_cycle;Signal;HPM_P1;HPM_P2
2022/07/19 00:00:16;;;;;;;8.60;2.30;;;;;;;17.90;nan;101137.84;5013522;28;20129;-70
2022/07/19 00:02:42;;;;;;;4.63;2.20;;;;;;;17.88;nan;101136.50;5006962;28;20046;-70
2022/07/19 00:05:10;;;;;;;5.78;2.30;;;;;;;17.83;nan;101132.72;5012100;28;20037;-67
2022/07/19 00:07:35;;;;;;;5.30;2.00;;;;;;;17.78;nan;101132.66;5008340;28;20189;-71
2022/07/19 00:10:02;;;;;;;4.78;1.90;;;;;;;17.77;nan;101130.25;5007467;28;20129;-67
2022/07/19 00:12:28;;;;;;;7.13;2.25;;;;;;;17.64;nan;101121.63;5006390;28;20046;-70
2022/07/19 00:14:53;;;;;;;4.65;2.20;;;;;;;17.58;nan;101120.00;5012305;28;20042;-69
2022/07/19 00:17:19;;;;;;;5.97;1.92;;;;;;;17.54;nan;101120.75;5012797;28;20469;-70
2022/07/19 00:19:44;;;;;;;2.97;1.60;;;;;;;17.45;nan;101128.38;5014829;28;20498;-69
2022/07/19 00:22:09;;;;;;;5.95;1.90;;;;;;;17.37;nan;101124.31;5008813;28;20094;-70
2022/07/19 00:24:35;;;;;;;7.50;2.03;;;;;;;17.28;nan;101123.16;5011019;28;20050;-70
2022/07/19 00:27:00;;;;;;;4.43;1.67;;;;;;;17.27;nan;101129.56;5008217;28;20041;-70
2022/07/19 00:29:26;;;;;;;6.00;1.70;;;;;;;17.25;nan;101130.88;5012384;28;20033;-70
2022/07/19 00:31:51;;;;;;;5.00;1.85;;;;;;;17.20;nan;101132.41;5010389;28;20073;-69
2022/07/19 00:34:16;;;;;;;3.00;1.83;;;;;;;17.17;nan;101132.94;5012851;28;20502;-70
2022/07/19 00:36:42;;;;;;;5.22;1.80;;;;;;;17.06;nan;101120.56;5011822;28;20084;-70
2022/07/19 00:39:07;;;;;;;3.47;1.58;;;;;;;17.04;nan;101128.00;5008509;28;20041;-71
2022/07/19 00:41:41;;;;;;;7.85;1.67;;;;;;;16.92;nan;101120.13;5014321;28;20079;-69
2022/07/19 00:44:08;;;;;;;2.70;1.70;;;;;;;16.92;nan;101127.31;5010466;28;20530;-69
2022/07/19 00:46:33;;;;;;;5.95;2.22;;;;;;;16.89;nan;101123.31;5007004;28;20045;-69
2022/07/19 00:48:59;;;;;;;4.07;1.80;;;;;;;16.82;nan;101114.72;5007979;28;20034;-70
2022/07/19 00:51:24;;;;;;;4.93;1.63;;;;;;;16.78;nan;101118.88;5009216;28;20161;-70
2022/07/19 00:53:51;;;;;;;6.20;1.60;;;;;;;16.73;nan;101118.81;5011288;28;20404;-69
2022/07/19 00:56:17;;;;;;;4.22;1.75;;;;;;;16.69;nan;101117.72;5007864;28;20113;-70
2022/07/19 00:58:44;;;;;;;6.45;1.90;;;;;;;16.65;nan;101120.06;5008532;28;20544;-69
2022/07/19 01:01:10;;;;;;;5.60;1.88;;;;;;;16.59;nan;101126.38;5007015;28;20026;-69
2022/07/19 01:03:38;;;;;;;3.00;1.63;;;;;;;16.52;nan;101123.09;5009913;28;20124;-69
2022/07/19 01:06:05;;;;;;;3.90;1.58;;;;;;;16.40;nan;101115.25;5008151;28;20118;-69
2022/07/19 01:08:31;;;;;;;8.57;1.95;;;;;;;16.35;nan;101121.31;5008670;28;20034;-69
2022/07/19 01:10:57;;;;;;;6.32;1.60;;;;;;;16.31;nan;101117.53;5012414;28;20041;-69
2022/07/19 01:13:22;;;;;;;2.90;1.60;;;;;;;16.17;nan;101106.44;5011103;28;20399;-68
2022/07/19 01:15:48;;;;;;;4.65;1.50;;;;;;;16.19;nan;101119.47;5010696;28;20033;-68
2022/07/19 01:18:13;;;;;;;5.82;1.58;;;;;;;16.13;nan;101115.13;5011830;28;20117;-69
2022/07/19 01:20:39;;;;;;;8.52;1.80;;;;;;;16.12;nan;101119.66;5013091;28;20044;-68
2022/07/19 01:23:04;;;;;;;4.35;1.52;;;;;;;16.11;nan;101122.53;5011173;28;20522;-69
2022/07/19 01:25:34;;;;;;;3.85;1.80;;;;;;;16.05;nan;101110.25;5011014;28;20451;-68
2022/07/19 01:27:59;;;;;;;8.38;2.88;;;;;;;16.03;nan;101117.66;5009633;28;20069;-69
2022/07/19 01:30:26;;;;;;;3.67;1.70;;;;;;;15.89;nan;101112.66;5009991;28;20437;-68
2022/07/19 01:32:53;;;;;;;4.35;1.90;;;;;;;15.93;nan;101120.97;5007853;28;20476;-67
2022/07/19 01:35:18;;;;;;;6.50;1.77;;;;;;;15.89;nan;101111.84;5009443;28;20046;-69
2022/07/19 01:37:44;;;;;;;7.93;1.85;;;;;;;15.89;nan;101117.16;5010454;28;20061;-68
2022/07/19 01:40:14;;;;;;;5.40;1.75;;;;;;;15.79;nan;101101.09;5011207;28;20099;-69
2022/07/19 01:42:40;;;;;;;4.38;1.65;;;;;;;15.82;nan;101116.53;5011651;28;20076;-69
2022/07/19 01:45:08;;;;;;;7.05;2.45;;;;;;;15.80;nan;101114.09;5008295;28;20037;-69
2022/07/19 01:47:34;;;;;;;4.68;2.10;;;;;;;15.77;nan;101117.25;5011100;28;20099;-68
2022/07/19 01:49:59;;;;;;;5.72;2.40;;;;;;;15.73;nan;101114.28;5003287;28;20488;-68
2022/07/19 01:52:24;;;;;;;6.97;3.70;;;;;;;15.70;nan;101113.94;5008613;28;20042;-69
2022/07/19 01:54:50;;;;;;;8.63;3.22;;;;;;;15.42;nan;101069.66;5007842;28;20169;-70
2022/07/19 01:57:15;;;;;;;9.48;3.88;;;;;;;15.58;nan;101106.03;5010032;28;20026;-69
2022/07/19 01:59:41;;;;;;;6.30;3.60;;;;;;;15.58;nan;101110.53;5012344;28;20121;-69
2022/07/19 02:02:07;;;;;;;6.63;3.38;;;;;;;15.50;nan;101112.53;5009486;28;20092;-68
2022/07/19 02:04:33;;;;;;;7.95;2.63;;;;;;;15.48;nan;101106.66;5009976;28;20085;-68
2022/07/19 02:06:58;;;;;;;4.50;2.67;;;;;;;15.46;nan;101118.56;5010354;28;20038;-68
2022/07/19 02:09:24;;;;;;;8.13;3.03;;;;;;;15.37;nan;101109.38;5005674;28;20979;-69
2022/07/19 02:11:50;;;;;;;4.55;2.30;;;;;;;15.38;nan;101117.13;5010989;28;20030;-69
2022/07/19 02:14:15;;;;;;;10.23;2.38;;;;;;;15.35;nan;101117.59;5008053;28;20066;-68
2022/07/19 02:16:41;;;;;;;6.57;3.13;;;;;;;15.25;nan;101115.56;5009160;28;20025;-69
2022/07/19 02:19:07;;;;;;;5.78;2.70;;;;;;;15.21;nan;101116.28;5013449;28;20561;-68
2022/07/19 02:21:35;;;;;;;8.63;3.13;;;;;;;15.17;nan;101123.09;5011062;28;20100;-67
2022/07/19 02:24:01;;;;;;;8.75;3.60;;;;;;;15.16;nan;101129.47;5012145;28;20144;-67
2022/07/19 02:26:26;;;;;;;6.78;4.40;;;;;;;15.12;nan;101123.00;5013857;28;20468;-68
2022/07/19 02:28:51;;;;;;;8.57;3.78;;;;;;;15.07;nan;101124.53;5006722;28;20049;-68
2022/07/19 02:31:17;;;;;;;8.48;3.22;;;;;;;15.02;nan;101128.94;5013409;28;20480;-70
2022/07/19 02:33:43;;;;;;;6.03;3.45;;;;;;;15.06;nan;101133.53;5010750;28;20104;-68
2022/07/19 02:36:08;;;;;;;8.10;2.97;;;;;;;15.07;nan;101134.34;5011321;28;20394;-68
2022/07/19 02:38:34;;;;;;;4.30;2.00;;;;;;;14.85;nan;101100.50;5008861;28;20030;-68
2022/07/19 02:40:59;;;;;;;4.80;2.13;;;;;;;14.85;nan;101121.72;5011238;28;20531;-67
2022/07/19 02:43:25;;;;;;;22.08;2.53;;;;;;;14.87;nan;101134.75;5012679;28;20035;-68
2022/07/19 02:45:50;;;;;;;6.25;1.90;;;;;;;14.84;nan;101132.56;5013019;28;20049;-67
2022/07/19 02:48:15;;;;;;;4.55;1.98;;;;;;;14.90;nan;101139.59;5012281;28;20030;-67
2022/07/19 02:50:42;;;;;;;4.70;2.30;;;;;;;14.84;nan;101130.72;5011382;28;20121;-68
2022/07/19 02:53:07;;;;;;;9.55;2.28;;;;;;;14.87;nan;101132.09;5009949;28;20084;-68
2022/07/19 02:55:33;;;;;;;7.53;2.38;;;;;;;14.92;nan;101140.16;5010136;28;20029;-67
2022/07/19 02:57:58;;;;;;;7.55;2.50;;;;;;;14.88;nan;101137.16;5011989;28;20037;-66
2022/07/19 03:00:23;;;;;;;9.15;2.42;;;;;;;14.86;nan;101138.44;5009334;28;20034;-68
2022/07/19 03:02:49;;;;;;;8.18;3.40;;;;;;;14.83;nan;101139.72;5010047;28;20033;-68
2022/07/19 03:05:14;;;;;;;5.47;2.97;;;;;;;14.72;nan;101123.81;5013935;28;20415;-68
2022/07/19 03:07:40;;;;;;;8.20;3.45;;;;;;;14.78;nan;101131.66;5009977;28;20072;-70
2022/07/19 03:10:06;;;;;;;9.07;3.17;;;;;;;14.79;nan;101143.84;5012804;28;20479;-70
2022/07/19 03:12:31;;;;;;;6.97;2.22;;;;;;;14.81;nan;101146.28;5012391;28;20056;-69
2022/07/19 03:14:57;;;;;;;5.28;2.30;;;;;;;14.82;nan;101145.22;5013640;28;20084;-69
2022/07/19 03:17:22;;;;;;;4.75;1.90;;;;;;;14.83;nan;101147.66;5012187;28;20033;-68
2022/07/19 03:19:48;;;;;;;6.13;2.45;;;;;;;14.84;nan;101151.94;5010432;28;20378;-68
2022/07/19 03:22:13;;;;;;;7.38;2.30;;;;;;;14.90;nan;101152.84;5011581;28;20472;-68
2022/07/19 03:24:39;;;;;;;5.30;2.28;;;;;;;14.80;nan;101144.69;5013382;28;20033;-68
2022/07/19 03:27:04;;;;;;;9.57;2.17;;;;;;;14.84;nan;101153.75;5010215;28;20029;-68
2022/07/19 03:29:30;;;;;;;8.80;2.80;;;;;;;14.77;nan;101153.91;5005686;28;20041;-69
2022/07/19 03:31:56;;;;;;;4.22;2.20;;;;;;;14.77;nan;101158.38;5011348;28;20068;-68
2022/07/19 03:34:21;;;;;;;11.77;2.53;;;;;;;14.75;nan;101156.00;5012616;28;20124;-70
2022/07/19 03:36:46;;;;;;;7.40;2.15;;;;;;;14.74;nan;101164.16;5011781;28;20598;-68
2022/07/19 03:39:12;;;;;;;3.17;2.13;;;;;;;14.72;nan;101168.91;5011223;28;20030;-68
2022/07/19 03:41:37;;;;;;;7.88;2.42;;;;;;;14.65;nan;101167.19;5009841;28;20480;-69
2022/07/19 03:44:03;;;;;;;5.53;2.67;;;;;;;14.71;nan;101164.66;5012994;28;20095;-68
2022/07/19 03:46:29;;;;;;;6.35;2.40;;;;;;;14.65;nan;101156.59;5008759;28;20396;-68
2022/07/19 03:48:56;;;;;;;6.20;2.50;;;;;;;14.76;nan;101173.50;5011028;28;20071;-68
2022/07/19 03:51:22;;;;;;;3.67;2.58;;;;;;;14.74;nan;101169.47;5011318;28;20516;-69
2022/07/19 03:53:47;;;;;;;5.32;2.67;;;;;;;14.79;nan;101183.63;5009927;28;20124;-69
2022/07/19 03:56:13;;;;;;;7.65;2.78;;;;;;;14.76;nan;101156.78;5009780;28;20034;-69
2022/07/19 03:58:39;;;;;;;4.20;2.20;;;;;;;14.80;nan;101173.84;5009021;28;20092;-70
2022/07/19 04:01:06;;;;;;;6.53;2.88;;;;;;;14.89;nan;101172.44;5012260;28;20471;-68
2022/07/19 04:03:38;;;;;;;10.80;2.72;;;;;;;14.89;nan;101167.13;5010280;28;21915;-68
2022/07/19 04:06:06;;;;;;;7.20;2.70;;;;;;;14.96;nan;101172.31;5007979;28;20558;-67
2022/07/19 04:08:31;;;;;;;7.25;3.10;;;;;;;14.79;nan;101137.75;5010894;28;20038;-68
2022/07/19 04:10:58;;;;;;;9.02;3.03;;;;;;;15.07;nan;101174.13;5007589;28;20039;-68
2022/07/19 04:13:23;;;;;;;10.15;3.13;;;;;;;15.15;nan;101181.69;5010605;28;20134;-68
2022/07/19 04:15:48;;;;;;;7.68;3.10;;;;;;;15.17;nan;101181.47;5010828;28;20030;-68
2022/07/19 04:18:14;;;;;;;7.75;2.75;;;;;;;15.27;nan;101186.97;5004953;28;20034;-69
2022/07/19 04:20:39;;;;;;;10.95;3.28;;;;;;;15.32;nan;101184.41;5010173;28;20052;-68
2022/07/19 04:23:05;;;;;;;6.93;3.03;;;;;;;15.35;nan;101189.25;5007799;28;20062;-69
2022/07/19 04:25:30;;;;;;;10.05;3.17;;;;;;;15.43;nan;101180.91;5009563;28;20065;-68
2022/07/19 04:27:55;;;;;;;6.72;2.95;;;;;;;15.38;nan;101161.44;5011291;28;20042;-69
2022/07/19 04:30:21;;;;;;;7.13;2.58;;;;;;;15.56;nan;101179.00;5011637;28;20038;-68
2022/07/19 04:32:46;;;;;;;11.50;2.50;;;;;;;15.56;nan;101161.22;5011684;28;20459;-70
2022/07/19 04:35:12;;;;;;;8.63;2.90;;;;;;;15.66;nan;101166.72;5010232;28;20041;-69
2022/07/19 04:37:37;;;;;;;13.55;2.10;;;;;;;15.69;nan;101158.25;5011913;28;20041;-67
2022/07/19 04:40:04;;;;;;;7.35;2.13;;;;;;;15.86;nan;101174.22;5009417;28;20147;-69
2022/07/19 04:42:29;;;;;;;4.28;2.10;;;;;;;15.93;nan;101177.53;5011877;28;20045;-69
2022/07/19 04:44:55;;;;;;;5.35;2.17;;;;;;;16.02;nan;101179.78;5010828;28;20041;-67
2022/07/19 04:47:20;;;;;;;6.50;2.13;;;;;;;16.02;nan;101169.97;5010378;28;20033;-68
2022/07/19 04:49:45;;;;;;;7.28;1.95;;;;;;;16.09;nan;101181.25;5009267;28;20083;-68
2022/07/19 04:52:11;;;;;;;10.85;2.40;;;;;;;16.15;nan;101177.59;5009525;28;20076;-69
2022/07/19 04:54:36;;;;;;;6.90;2.30;;;;;;;16.28;nan;101186.28;5007591;28;20125;-69
2022/07/19 04:57:02;;;;;;;7.88;2.85;;;;;;;16.32;nan;101171.47;5007105;28;20570;-68
2022/07/19 04:59:27;;;;;;;7.32;1.90;;;;;;;16.43;nan;101175.09;5008932;28;20480;-69
2022/07/19 05:01:53;;;;;;;8.57;2.13;;;;;;;16.55;nan;101181.09;5010931;28;20033;-68
2022/07/19 05:04:18;;;;;;;9.15;2.20;;;;;;;16.58;nan;101180.59;5008336;28;20099;-68
2022/07/19 05:06:44;;;;;;;5.90;2.65;;;;;;;16.72;nan;101186.38;5002887;28;20034;-68
2022/07/19 05:09:10;;;;;;;6.20;2.40;;;;;;;16.80;nan;101193.94;5004080;28;20069;-68
2022/07/19 05:11:35;;;;;;;5.80;1.98;;;;;;;16.90;nan;101196.72;5006123;28;20033;-68
2022/07/19 05:14:01;;;;;;;7.80;2.13;;;;;;;16.96;nan;101193.09;5010647;28;20126;-69
2022/07/19 05:16:26;;;;;;;4.18;1.95;;;;;;;16.96;nan;101179.78;5008436;28;20484;-69
2022/07/19 05:18:52;;;;;;;6.82;2.08;;;;;;;17.20;nan;101192.84;5011831;28;20026;-69
2022/07/19 05:21:17;;;;;;;5.82;1.80;;;;;;;17.27;nan;101184.66;5003893;28;20121;-69
2022/07/19 05:23:42;;;;;;;13.25;2.25;;;;;;;17.44;nan;101193.34;5018500;28;20435;-69
2022/07/19 05:26:08;;;;;;;7.88;1.92;;;;;;;17.57;nan;101200.91;5010028;28;20045;-69
2022/07/19 05:28:34;;;;;;;10.50;2.40;;;;;;;17.67;nan;101186.09;5011349;28;20818;-71
2022/07/19 05:30:59;;;;;;;7.07;2.00;;;;;;;17.83;nan;101185.22;5005937;28;20049;-68
2022/07/19 05:33:27;;;;;;;6.45;2.00;;;;;;;17.91;nan;101182.09;5016937;28;20089;-68
2022/07/19 05:35:52;;;;;;;13.73;2.17;;;;;;;18.07;nan;101194.44;5006979;28;20052;-68
2022/07/19 05:38:18;;;;;;;11.63;1.67;;;;;;;18.18;nan;101190.00;5010844;28;20030;-68
2022/07/19 05:40:43;;;;;;;4.32;1.67;;;;;;;18.43;nan;101201.91;5011041;28;20029;-68
2022/07/19 05:43:09;;;;;;;9.70;2.33;;;;;;;18.48;nan;101197.41;5006891;28;20036;-69
2022/07/19 05:45:34;;;;;;;6.10;2.08;;;;;;;18.63;nan;101203.91;5008934;28;20369;-69
2022/07/19 05:48:00;;;;;;;5.07;1.98;;;;;;;18.76;nan;101184.75;5007514;28;20056;-69
2022/07/19 05:50:25;;;;;;;8.80;2.20;;;;;;;18.86;nan;101192.81;5008149;28;20034;-69
2022/07/19 05:52:51;;;;;;;5.00;1.90;;;;;;;18.92;nan;101185.63;5011234;28;20088;-69
2022/07/19 05:55:16;;;;;;;8.15;2.22;;;;;;;19.11;nan;101196.66;5011942;28;20563;-70
2022/07/19 05:57:42;;;;;;;6.95;1.92;;;;;;;19.17;nan;101200.13;5010556;28;20080;-69
2022/07/19 06:00:08;;;;;;;8.88;2.13;;;;;;;19.24;nan;101200.69;5009310;28;20034;-69
2022/07/19 06:02:33;;;;;;;5.10;2.30;;;;;;;19.33;nan;101205.25;5008882;28;20042;-69
2022/07/19 06:04:59;;;;;;;7.80;2.10;;;;;;;19.46;nan;101192.44;5013828;28;20040;-72
2022/07/19 06:07:24;;;;;;;4.20;1.83;;;;;;;19.60;nan;101187.41;5013798;28;20033;-71
2022/07/19 06:09:49;;;;;;;5.93;2.33;;;;;;;19.77;nan;101193.31;5026850;28;20070;-72
2022/07/19 06:12:15;;;;;;;6.93;1.90;;;;;;;19.84;nan;101185.03;5006914;28;20048;-71
2022/07/19 06:14:41;;;;;;;8.18;2.40;;;;;;;19.95;nan;101186.63;5009275;28;20088;-71
2022/07/19 06:17:06;;;;;;;4.85;1.92;;;;;;;20.05;nan;101191.97;5011649;28;20052;-68
2022/07/19 06:19:31;;;;;;;2.92;1.88;;;;;;;20.18;nan;101182.59;5015053;28;20034;-68
2022/07/19 06:21:57;;;;;;;9.60;1.70;;;;;;;20.28;nan;101187.13;5010631;28;20038;-70
2022/07/19 06:24:22;;;;;;;7.43;2.08;;;;;;;20.35;nan;101182.28;5009225;28;20046;-69
2022/07/19 06:26:47;;;;;;;6.28;1.90;;;;;;;20.31;nan;101165.19;5013751;28;20026;-69
2022/07/19 06:29:13;;;;;;;3.13;1.90;;;;;;;20.66;nan;101195.63;5010433;28;20100;-69
2022/07/19 06:31:38;;;;;;;4.25;1.75;;;;;;;20.71;nan;101188.38;5008309;28;20033;-69
2022/07/19 06:34:04;;;;;;;3.28;1.55;;;;;;;20.83;nan;101188.06;5008530;28;20556;-71
2022/07/19 06:36:29;;;;;;;8.43;2.35;;;;;;;20.93;nan;101193.38;5014384;28;20032;-72
2022/07/19 06:38:55;;;;;;;6.40;2.13;;;;;;;21.04;nan;101189.56;5012609;28;20480;-69
2022/07/19 06:41:20;;;;;;;5.50;1.70;;;;;;;21.10;nan;101186.88;5007294;28;20109;-69
2022/07/19 06:43:45;;;;;;;4.07;2.00;;;;;;;21.10;nan;101170.81;5013233;28;20033;-69
2022/07/19 06:46:11;;;;;;;4.05;1.75;;;;;;;21.35;nan;101125.09;5007310;28;20042;-69
2022/07/19 06:48:37;;;;;;;3.47;1.60;;;;;;;21.57;nan;101197.06;5012227;28;20034;-69
2022/07/19 06:51:05;;;;;;;4.93;1.98;;;;;;;21.66;nan;101195.38;5013116;28;20057;-69
2022/07/19 06:53:30;;;;;;;5.47;2.10;;;;;;;21.72;nan;101201.50;5010832;28;20495;-72
2022/07/19 06:55:56;;;;;;;2.38;1.58;;;;;;;21.81;nan;101202.50;5012603;28;20041;-69
2022/07/19 06:58:21;;;;;;;6.22;1.80;;;;;;;21.98;nan;101199.41;5011825;28;20568;-69
2022/07/19 07:00:48;;;;;;;4.32;1.63;;;;;;;22.10;nan;101201.72;5012680;28;20030;-69
2022/07/19 07:03:15;;;;;;;4.07;1.55;;;;;;;22.14;nan;101194.69;5008632;28;20057;-68
2022/07/19 07:05:40;;;;;;;2.60;1.60;;;;;;;22.33;nan;101200.16;5008054;28;20730;-69
2022/07/19 07:08:06;;;;;;;3.42;1.60;;;;;;;22.48;nan;101193.84;5017372;28;20033;-69
2022/07/19 07:10:31;;;;;;;5.13;1.73;;;;;;;22.54;nan;101202.66;5010298;28;20039;-69
2022/07/19 07:12:57;;;;;;;3.20;1.52;;;;;;;22.52;nan;101187.63;5009845;28;20041;-69
2022/07/19 07:15:22;;;;;;;3.05;1.63;;;;;;;22.65;nan;101204.09;5006516;28;20030;-72
2022/07/19 07:17:47;;;;;;;5.00;1.90;;;;;;;22.64;nan;101189.91;5013812;28;20095;-71
2022/07/19 07:20:13;;;;;;;4.35;1.40;;;;;;;22.81;nan;101192.09;5013026;28;20060;-72
2022/07/19 07:22:39;;;;;;;9.38;1.67;;;;;;;22.85;nan;101184.28;5011317;28;20084;-71
2022/07/19 07:25:05;;;;;;;6.65;1.63;;;;;;;23.01;nan;101190.28;5013101;28;20030;-71
2022/07/19 07:27:30;;;;;;;9.82;2.13;;;;;;;23.07;nan;101176.50;5028016;28;20547;-71
2022/07/19 07:29:56;;;;;;;7.55;1.77;;;;;;;23.14;nan;101184.19;5013781;28;20121;-71
2022/07/19 07:32:21;;;;;;;6.82;1.50;;;;;;;23.26;nan;101183.75;5011762;28;20447;-71
2022/07/19 07:34:47;;;;;;;4.68;1.60;;;;;;;23.42;nan;101185.13;5012097;28;20459;-71
2022/07/19 07:37:13;;;;;;;6.90;1.88;;;;;;;23.57;nan;101186.78;5008879;28;20030;-71
2022/07/19 07:39:38;;;;;;;7.68;1.63;;;;;;;23.57;nan;101170.66;5013731;28;20149;-72
2022/07/19 07:42:04;;;;;;;5.50;2.10;;;;;;;23.69;nan;101181.75;5016659;28;20386;-71
2022/07/19 07:44:30;;;;;;;7.85;1.55;;;;;;;23.81;nan;101186.69;5013366;28;20033;-71
2022/07/19 07:46:55;;;;;;;9.30;1.60;;;;;;;23.98;nan;101186.94;5013046;28;20033;-71
2022/07/19 07:49:21;;;;;;;3.83;1.58;;;;;;;24.14;nan;101192.84;5013133;28;20037;-71
2022/07/19 07:51:46;;;;;;;7.13;2.28;;;;;;;24.20;nan;101177.41;5013106;28;20022;-72
2022/07/19 07:54:12;;;;;;;6.07;1.60;;;;;;;24.32;nan;101179.59;5013092;28;20049;-72
2022/07/19 07:56:37;;;;;;;6.82;1.73;;;;;;;24.44;nan;101176.41;5013296;28;20034;-72
2022/07/19 07:59:03;;;;;;;4.88;1.45;;;;;;;24.49;nan;101184.41;5013330;28;20125;-72
2022/07/19 08:01:29;;;;;;;6.97;1.60;;;;;;;24.65;nan;101188.41;5011655;28;20022;-71
2022/07/19 08:03:55;;;;;;;2.63;1.50;;;;;;;24.77;nan;101177.13;4999543;28;20038;-72
2022/07/19 08:06:20;;;;;;;5.13;1.50;;;;;;;24.82;nan;101179.69;5011962;28;20077;-71
2022/07/19 08:08:46;;;;;;;5.03;1.55;;;;;;;24.95;nan;101186.97;5012581;28;20057;-71
2022/07/19 08:11:11;;;;;;;5.65;1.35;;;;;;;25.02;nan;101183.84;5012838;28;20034;-71
2022/07/19 08:13:36;;;;;;;2.72;1.67;;;;;;;25.07;nan;101185.63;5002534;28;20029;-71
2022/07/19 08:16:02;;;;;;;5.00;1.75;;;;;;;25.18;nan;101184.34;5008510;28;20042;-71
2022/07/19 08:18:27;;;;;;;5.25;1.90;;;;;;;25.26;nan;101191.72;5011183;28;20052;-71
2022/07/19 08:20:53;;;;;;;5.95;1.60;;;;;;;25.39;nan;101187.38;5008003;28;20106;-71
2022/07/19 08:23:18;;;;;;;3.65;1.80;;;;;;;25.45;nan;101180.75;5009844;28;20550;-70
2022/07/19 08:25:44;;;;;;;4.45;1.50;;;;;;;25.54;nan;101186.22;5009562;28;20033;-72
2022/07/19 08:28:09;;;;;;;4.53;1.45;;;;;;;25.55;nan;101179.69;5017998;28;20030;-72
2022/07/19 08:30:34;;;;;;;5.53;1.35;;;;;;;25.62;nan;101167.41;5010208;28;20044;-71
2022/07/19 08:33:01;;;;;;;4.50;1.52;;;;;;;25.77;nan;101173.50;5009272;28;20042;-72
2022/07/19 08:35:27;;;;;;;6.30;1.48;;;;;;;25.80;nan;101165.59;5010961;28;20345;-72
2022/07/19 08:37:52;;;;;;;3.55;1.40;;;;;;;25.89;nan;101162.97;5011495;28;20030;-72
2022/07/19 08:40:17;;;;;;;3.90;1.50;;;;;;;25.97;nan;101170.31;5012236;28;20069;-72
2022/07/19 08:42:43;;;;;;;5.85;1.27;;;;;;;26.02;nan;101169.38;5012363;28;20050;-72
2022/07/19 08:45:10;;;;;;;3.50;1.45;;;;;;;26.09;nan;101169.72;5012316;28;20026;-72
2022/07/19 08:47:36;;;;;;;4.25;1.23;;;;;;;26.26;nan;101163.59;5012417;28;20488;-73
2022/07/19 08:50:08;;;;;;;2.30;1.25;;;;;;;26.39;nan;101167.31;5011474;28;20072;-72
2022/07/19 08:52:33;;;;;;;3.15;1.70;;;;;;;26.31;nan;101144.56;5010409;28;20116;-71
2022/07/19 08:54:59;;;;;;;4.40;1.20;;;;;;;26.45;nan;101156.03;5010867;28;20033;-72
2022/07/19 09:00:10;;;;;;;6.57;1.73;;;;;;;26.72;nan;101167.72;5007511;28;20037;-72
2022/07/19 09:02:36;;;;;;;4.25;1.75;;;;;;;26.80;nan;101158.84;5011198;28;20805;-72
2022/07/19 09:05:07;;;;;;;4.60;1.65;;;;;;;26.84;nan;101159.81;5009048;28;20034;-72
2022/07/19 09:07:38;;;;;;;2.20;1.20;;;;;;;26.89;nan;101145.34;5006473;28;20504;-72
2022/07/19 09:10:20;;;;;;;3.50;1.30;;;;;;;26.99;nan;101155.06;5010407;28;20507;-71
2022/07/19 09:13:08;;;;;;;5.55;1.40;;;;;;;27.05;nan;101159.19;5010626;28;20041;-72
2022/07/19 09:15:37;;;;;;;9.00;1.63;;;;;;;27.04;nan;101149.50;5005476;28;20061;-71
2022/07/19 09:18:19;;;;;;;3.95;1.00;;;;;;;27.13;nan;101155.69;5009639;28;20030;-72
2022/07/19 09:20:47;;;;;;;5.53;1.20;;;;;;;27.13;nan;101136.78;5011395;28;20041;-72
2022/07/19 09:23:12;;;;;;;1.40;1.10;;;;;;;27.23;nan;101150.00;5008653;28;20446;-74
2022/07/19 09:25:40;;;;;;;4.32;1.08;;;;;;;27.26;nan;101135.03;5007818;28;20076;-73
2022/07/19 09:28:07;;;;;;;2.43;1.07;;;;;;;27.41;nan;101139.13;5007952;28;20030;-72
2022/07/19 09:30:44;;;;;;;4.47;1.13;;;;;;;27.39;nan;101136.75;5005986;28;20029;-73
2022/07/19 09:33:14;;;;;;;3.15;1.38;;;;;;;27.44;nan;101138.50;5008212;28;20029;-71
2022/07/19 09:35:43;;;;;;;1.67;1.00;;;;;;;27.45;nan;101145.50;5007721;28;20049;-71
2022/07/19 09:38:30;;;;;;;2.60;0.93;;;;;;;27.47;nan;101146.78;5009681;28;20116;-71
2022/07/19 09:41:15;;;;;;;7.45;1.25;;;;;;;27.49;nan;101144.53;5011571;28;20062;-72
2022/07/19 09:43:52;;;;;;;1.20;1.00;;;;;;;27.51;nan;101142.31;5011571;28;20033;-74
2022/07/19 09:46:30;;;;;;;1.60;1.13;;;;;;;27.57;nan;101142.94;5003489;28;20030;-71
2022/07/19 09:49:21;;;;;;;2.47;1.20;;;;;;;27.67;nan;101144.50;5002281;28;20042;-72
2022/07/19 09:51:49;;;;;;;3.67;1.15;;;;;;;27.68;nan;101136.06;5005880;28;20562;-71
2022/07/19 09:54:23;;;;;;;2.40;1.10;;;;;;;27.71;nan;101134.63;5006071;28;20161;-71
2022/07/19 09:56:52;;;;;;;1.65;1.10;;;;;;;27.82;nan;101140.47;5005055;28;20041;-71
2022/07/19 09:59:19;;;;;;;3.17;1.10;;;;;;;27.92;nan;101132.84;5006290;28;20029;-71
2022/07/19 10:01:50;;;;;;;5.07;1.30;;;;;;;27.99;nan;101129.59;5010199;28;20036;-71
2022/07/19 10:04:19;;;;;;;2.63;1.27;;;;;;;28.06;nan;101129.09;5010105;28;20112;-70
2022/07/19 10:06:47;;;;;;;2.58;1.20;;;;;;;28.20;nan;101135.88;5004494;28;20604;-72
2022/07/19 10:09:17;;;;;;;4.53;1.10;;;;;;;28.25;nan;101131.41;5009031;28;20037;-72
2022/07/19 10:11:44;;;;;;;2.42;0.90;;;;;;;28.14;nan;101118.25;5011328;28;20030;-72
2022/07/19 10:14:10;;;;;;;7.30;1.45;;;;;;;28.16;nan;101123.34;5009453;28;20026;-73
2022/07/19 10:16:50;;;;;;;10.93;1.42;;;;;;;28.23;nan;101123.63;5007735;28;20074;-73
2022/07/19 10:19:18;;;;;;;3.45;1.30;;;;;;;28.26;nan;101117.53;5006148;28;20033;-72
2022/07/19 10:21:45;;;;;;;2.17;1.13;;;;;;;28.27;nan;101121.03;5011247;28;20049;-72
2022/07/19 10:24:11;;;;;;;1.98;1.20;;;;;;;28.36;nan;101103.63;5008629;28;20063;-72
2022/07/19 10:26:37;;;;;;;2.35;0.90;;;;;;;28.30;nan;101098.72;5010576;28;20137;-71
2022/07/19 10:29:07;;;;;;;3.72;0.85;;;;;;;28.48;nan;101111.06;5010186;28;20038;-73
2022/07/19 10:31:35;;;;;;;2.15;0.75;;;;;;;28.54;nan;101108.94;5009259;28;20030;-71
2022/07/19 10:34:06;;;;;;;2.27;0.80;;;;;;;28.50;nan;101110.75;5010745;28;20038;-72
2022/07/19 10:36:38;;;;;;;2.08;0.90;;;;;;;28.54;nan;101095.38;5004562;28;20129;-71
2022/07/19 10:39:21;;;;;;;2.60;0.90;;;;;;;28.66;nan;101100.09;5010656;28;20106;-72
2022/07/19 10:42:13;;;;;;;4.05;1.10;;;;;;;28.68;nan;101104.06;5009800;28;20048;-72
2022/07/19 10:44:57;;;;;;;6.15;1.20;;;;;;;28.75;nan;101100.81;5005646;28;20037;-71
2022/07/19 10:47:45;;;;;;;1.98;1.05;;;;;;;28.82;nan;101093.75;5011948;28;20041;-71
2022/07/19 10:50:15;;;;;;;4.05;1.00;;;;;;;28.99;nan;101094.72;5009830;28;20058;-71
2022/07/19 10:52:42;;;;;;;3.65;1.10;;;;;;;29.10;nan;101087.00;5013423;28;20488;-71
2022/07/19 10:55:27;;;;;;;0.95;0.85;;;;;;;29.19;nan;101082.28;5013375;28;20030;-71
2022/07/19 10:58:07;;;;;;;5.35;1.20;;;;;;;29.25;nan;101072.81;5013191;28;20034;-71
2022/07/19 11:00:48;;;;;;;1.98;1.00;;;;;;;29.33;nan;101079.25;5013019;28;20030;-71
2022/07/19 11:03:20;;;;;;;1.80;1.00;;;;;;;29.34;nan;101073.50;5013097;28;20041;-72
2022/07/19 11:05:54;;;;;;;2.17;0.90;;;;;;;29.38;nan;101074.44;5009767;28;20045;-72
2022/07/19 11:08:40;;;;;;;3.17;1.00;;;;;;;29.51;nan;101072.53;5011901;28;20026;-72
2022/07/19 11:11:12;;;;;;;2.67;1.17;;;;;;;29.58;nan;101066.53;5013693;28;20033;-71
2022/07/19 11:13:39;;;;;;;2.40;1.35;;;;;;;29.75;nan;101076.41;5008354;28;20030;-71
2022/07/19 11:16:05;;;;;;;3.13;0.82;;;;;;;29.76;nan;101067.13;5010786;28;20034;-71
2022/07/19 11:18:31;;;;;;;2.38;0.90;;;;;;;29.75;nan;101069.06;5013090;28;20050;-71
2022/07/19 11:20:59;;;;;;;2.03;0.90;;;;;;;29.81;nan;101069.63;5012335;28;20419;-71
2022/07/19 11:23:29;;;;;;;2.33;1.00;;;;;;;29.80;nan;101054.47;5011408;28;20696;-71
2022/07/19 11:26:09;;;;;;;2.65;0.88;;;;;;;29.85;nan;101057.75;5009596;28;20062;-71
2022/07/19 11:28:36;;;;;;;2.70;0.90;;;;;;;29.84;nan;101058.88;5009428;28;20034;-71
2022/07/19 11:31:15;;;;;;;4.03;0.95;;;;;;;29.86;nan;101045.78;5011769;28;20030;-71
2022/07/19 11:33:41;;;;;;;1.95;0.80;;;;;;;29.96;nan;101044.53;5013495;28;20030;-70
2022/07/19 11:36:08;;;;;;;2.08;1.08;;;;;;;30.11;nan;101045.75;5010541;28;20084;-70
2022/07/19 11:38:43;;;;;;;1.50;0.80;;;;;;;30.22;nan;101041.44;5013429;28;20029;-71
2022/07/19 11:41:16;;;;;;;2.75;1.05;;;;;;;30.33;nan;101043.69;5011733;28;20443;-72
2022/07/19 11:43:42;;;;;;;1.95;1.05;;;;;;;30.37;nan;101031.00;5027715;28;20484;-70